createdAt,value
2022-11-18T00:00:40.110Z,7.70
2022-11-18T00:03:41.689Z,7.70
2022-11-18T00:06:42.969Z,7.70
2022-11-18T00:09:44.099Z,7.70
2022-11-18T00:13:03.625Z,7.60
2022-11-18T00:16:13.162Z,7.60
2022-11-18T00:19:15.494Z,7.60
2022-11-18T00:22:16.439Z,7.60
2022-11-18T00:25:17.165Z,7.60
2022-11-18T00:28:17.965Z,7.60
2022-11-18T00:31:18.881Z,7.70
2022-11-18T00:34:20.335Z,7.70
2022-11-18T00:37:21.383Z,7.60
2022-11-18T00:40:22.571Z,7.70
2022-11-18T00:43:23.408Z,7.60
2022-11-18T00:46:24.639Z,7.60
2022-11-18T00:49:25.659Z,7.60
2022-11-18T00:52:26.299Z,7.70
2022-11-18T00:55:27.096Z,7.60
2022-11-18T00:58:28.205Z,7.70
2022-11-18T01:01:29.186Z,7.60
2022-11-18T01:04:30.469Z,7.70
2022-11-18T01:07:31.880Z,7.60
2022-11-18T01:10:33.302Z,7.60
2022-11-18T01:14:04.610Z,7.60
2022-11-18T01:17:05.975Z,7.60
2022-11-18T01:20:07.881Z,7.60
2022-11-18T01:23:09.018Z,7.50
2022-11-18T01:26:13.350Z,7.60
2022-11-18T01:29:14.376Z,7.50
2022-11-18T01:32:25.007Z,7.60
2022-11-18T01:35:26.540Z,7.60
2022-11-18T01:38:28.569Z,7.60
2022-11-18T01:41:29.809Z,7.60
2022-11-18T01:45:05.344Z,7.60
2022-11-18T01:48:24.548Z,7.60
2022-11-18T01:51:34.445Z,7.60
2022-11-18T01:54:41.954Z,7.60
2022-11-18T01:57:44.820Z,7.60
2022-11-18T02:00:45.960Z,7.50
2022-11-18T02:03:49.613Z,7.50
2022-11-18T02:06:51.607Z,7.40
2022-11-18T02:09:55.303Z,7.40
2022-11-18T02:12:57.975Z,7.40
2022-11-18T02:16:27.460Z,7.30
2022-11-18T02:19:46.633Z,7.30
2022-11-18T02:22:58.316Z,7.30
2022-11-18T02:26:36.438Z,7.20
2022-11-18T02:29:58.616Z,7.20
2022-11-18T02:33:39.945Z,7.20
2022-11-18T02:36:48.440Z,7.20
2022-11-18T02:40:10.508Z,7.20
2022-11-18T02:43:52.066Z,7.20
2022-11-18T02:47:01.461Z,7.20
2022-11-18T02:50:09.770Z,7.30
2022-11-18T02:53:16.838Z,7.30
2022-11-18T02:56:20.563Z,7.30
2022-11-18T02:59:21.911Z,7.20
2022-11-18T03:02:23.738Z,7.20
2022-11-18T03:06:19.702Z,7.20
2022-11-18T03:09:38.955Z,7.20
2022-11-18T03:13:03.063Z,7.30
2022-11-18T03:16:14.808Z,7.20
2022-11-18T03:20:11.060Z,7.20
2022-11-18T03:23:25.594Z,7.10
2022-11-18T03:26:35.801Z,7.10
2022-11-18T03:29:47.345Z,7.20
2022-11-18T03:33:02.691Z,7.30
2022-11-18T03:36:10.038Z,7.30
2022-11-18T03:39:16.225Z,7.30
2022-11-18T03:42:28.008Z,7.20
2022-11-18T03:45:49.669Z,7.20
2022-11-18T03:48:56.855Z,7.20
2022-11-18T03:52:10.120Z,7.20
2022-11-18T03:55:21.013Z,7.10
2022-11-18T03:58:41.037Z,7.20
2022-11-18T04:02:00.096Z,7.10
2022-11-18T04:05:05.912Z,7.10
2022-11-18T04:08:27.409Z,7.20
2022-11-18T04:11:55.682Z,7.20
2022-11-18T04:14:56.709Z,7.30
2022-11-18T04:17:58.764Z,7.30
2022-11-18T04:20:59.568Z,7.30
2022-11-18T04:24:00.524Z,7.30
2022-11-18T04:27:02.732Z,7.30
2022-11-18T04:30:06.424Z,7.30
2022-11-18T04:33:07.613Z,7.30
2022-11-18T04:36:09.235Z,7.20
2022-11-18T04:39:10.321Z,7.20
2022-11-18T04:42:11.157Z,7.10
2022-11-18T04:45:12.589Z,7.10
2022-11-18T04:48:13.540Z,7.10
2022-11-18T04:51:14.530Z,7.00
2022-11-18T04:54:16.764Z,6.90
2022-11-18T04:57:17.595Z,6.90
2022-11-18T05:00:18.596Z,6.90
2022-11-18T05:03:19.460Z,6.90
2022-11-18T05:06:20.565Z,6.90
2022-11-18T05:09:24.900Z,6.80
2022-11-18T05:12:48.425Z,6.70
2022-11-18T05:15:49.750Z,6.70
2022-11-18T05:18:50.805Z,6.70
2022-11-18T05:21:51.762Z,6.70
2022-11-18T05:24:52.796Z,6.70
2022-11-18T05:27:53.513Z,6.70
2022-11-18T05:30:54.394Z,6.70
2022-11-18T05:33:55.365Z,6.80
2022-11-18T05:36:56.528Z,6.80
2022-11-18T05:39:57.507Z,6.80
2022-11-18T05:43:13.593Z,6.80
2022-11-18T05:46:14.469Z,6.80
2022-11-18T05:49:15.586Z,6.90
2022-11-18T05:52:16.712Z,6.90
2022-11-18T05:55:19.670Z,6.90
2022-11-18T05:58:22.958Z,6.90
2022-11-18T06:01:39.838Z,6.90
2022-11-18T06:04:53.346Z,6.80
2022-11-18T06:07:58.166Z,6.80
2022-11-18T06:10:59.752Z,6.80
2022-11-18T06:14:43.158Z,6.80
2022-11-18T06:17:59.356Z,6.80
2022-11-18T06:21:05.616Z,6.80
2022-11-18T06:24:10.045Z,6.70
2022-11-18T06:27:14.323Z,6.70
2022-11-18T06:30:15.725Z,6.70
2022-11-18T06:33:16.680Z,6.70
2022-11-18T06:36:17.725Z,6.60
2022-11-18T06:39:19.116Z,6.60
2022-11-18T06:42:39.033Z,6.60
2022-11-18T06:45:39.840Z,6.60
2022-11-18T06:48:40.627Z,6.60
2022-11-18T06:51:41.746Z,6.60
2022-11-18T06:54:42.688Z,6.60
2022-11-18T06:57:43.587Z,6.60
2022-11-18T07:00:44.556Z,6.60
2022-11-18T07:03:46.746Z,6.60
2022-11-18T07:06:48.011Z,6.60
2022-11-18T07:09:48.948Z,6.60
2022-11-18T07:12:49.867Z,6.60
2022-11-18T07:15:50.504Z,6.60
2022-11-18T07:18:53.480Z,6.50
2022-11-18T07:21:54.694Z,6.50
2022-11-18T07:24:55.306Z,6.40
2022-11-18T07:27:56.596Z,6.40
2022-11-18T07:31:12.057Z,6.40
2022-11-18T07:34:13.948Z,6.40
2022-11-18T07:37:15.131Z,6.40
2022-11-18T07:40:16.016Z,6.40
2022-11-18T07:43:16.797Z,6.40
2022-11-18T07:46:32.655Z,6.40
2022-11-18T07:49:33.636Z,6.50
2022-11-18T07:52:34.446Z,6.50
2022-11-18T07:55:35.661Z,6.60
2022-11-18T07:58:37.218Z,6.60
2022-11-18T08:01:38.198Z,6.70
2022-11-18T08:04:39.722Z,7.10
2022-11-18T08:07:40.709Z,7.20
2022-11-18T08:10:41.952Z,8.10
2022-11-18T08:13:42.952Z,8.10
2022-11-18T08:16:44.043Z,9.70
2022-11-18T08:19:44.819Z,11.70
2022-11-18T08:22:48.519Z,11.90
2022-11-18T08:25:49.092Z,12.70
2022-11-18T08:28:50.618Z,11.70
2022-11-18T08:31:51.544Z,10.10
2022-11-18T08:34:52.432Z,10.80
2022-11-18T08:37:53.384Z,11.50
2022-11-18T08:40:54.619Z,9.10
2022-11-18T08:43:55.867Z,12.10
2022-11-18T08:46:56.789Z,13.80
2022-11-18T10:01:42.954Z,9.70
2022-11-18T10:07:50.799Z,8.20
2022-11-18T10:11:10.596Z,8.20
2022-11-18T10:14:47.052Z,8.10
2022-11-18T10:18:58.541Z,8.30
2022-11-18T10:22:32.501Z,8.60
2022-11-18T10:25:33.655Z,8.60
2022-11-18T10:28:35.376Z,8.40
2022-11-18T10:31:39.945Z,8.30
2022-11-18T10:34:56.980Z,8.30
2022-11-18T10:38:16.552Z,8.10
2022-11-18T10:41:21.601Z,8.20
2022-11-18T10:44:32.020Z,8.10
2022-11-18T10:47:33.909Z,8.20
2022-11-18T10:50:51.911Z,8.20
2022-11-18T10:54:21.861Z,8.30
2022-11-18T10:57:25.357Z,8.30
2022-11-18T11:00:35.664Z,8.40
2022-11-18T11:03:40.926Z,8.40
2022-11-18T11:06:41.965Z,8.40
2022-11-18T11:09:43.702Z,8.40
2022-11-18T11:13:04.736Z,8.30
2022-11-18T11:16:07.469Z,8.30
2022-11-18T11:19:13.385Z,8.30
2022-11-18T11:22:15.264Z,8.40
2022-11-18T11:25:26.863Z,8.60
2022-11-18T11:28:43.287Z,8.70
2022-11-18T11:32:08.938Z,8.80
2022-11-18T11:35:34.328Z,8.70
2022-11-18T11:39:10.722Z,8.70
2022-11-18T11:42:33.397Z,8.60
2022-11-18T11:46:25.410Z,8.70
2022-11-18T11:49:54.370Z,8.70
2022-11-18T11:53:04.401Z,8.70
2022-11-18T11:56:40.406Z,8.60
2022-11-18T12:00:08.410Z,8.50
2022-11-18T12:03:51.661Z,8.30
2022-11-18T12:06:56.247Z,8.10
2022-11-18T12:10:31.302Z,7.90
2022-11-18T12:13:53.838Z,7.80
2022-11-18T12:17:32.377Z,7.60
2022-11-18T12:20:45.032Z,7.60
2022-11-18T12:24:18.510Z,7.50
2022-11-18T12:27:27.339Z,7.50
2022-11-18T12:30:28.322Z,7.60
2022-11-18T12:33:29.473Z,7.80
2022-11-18T12:36:42.547Z,8.00
2022-11-18T12:39:49.022Z,7.80
2022-11-18T12:43:08.791Z,7.60
2022-11-18T12:46:10.114Z,7.60
2022-11-18T12:49:23.192Z,7.60
2022-11-18T12:52:30.534Z,7.60
2022-11-18T12:55:33.370Z,7.50
2022-11-18T12:58:35.298Z,7.50
2022-11-18T13:01:36.034Z,7.60
2022-11-18T13:04:44.371Z,7.60
2022-11-18T13:08:14.828Z,7.60
2022-11-18T13:11:38.129Z,7.60
2022-11-18T13:15:03.692Z,7.80
2022-11-18T13:18:20.474Z,7.90
2022-11-18T13:21:46.478Z,7.90
2022-11-18T13:24:52.499Z,7.90
2022-11-18T13:28:26.022Z,7.90
2022-11-18T13:31:54.731Z,7.90
2022-11-18T13:35:12.166Z,7.80
2022-11-18T13:38:27.662Z,7.90
2022-11-18T13:41:32.905Z,8.00
2022-11-18T13:44:38.739Z,8.00
2022-11-18T13:47:59.810Z,8.10
2022-11-18T13:51:02.703Z,8.10
2022-11-18T13:54:04.053Z,8.00
2022-11-18T13:57:05.168Z,8.10
2022-11-18T14:00:19.717Z,8.10
2022-11-18T14:03:32.691Z,8.10
2022-11-18T14:06:37.567Z,8.10
2022-11-18T14:10:12.531Z,8.10
2022-11-18T14:13:36.919Z,8.00
2022-11-18T14:16:42.109Z,7.90
2022-11-18T14:19:43.666Z,8.00
2022-11-18T14:22:53.476Z,8.10
2022-11-18T14:25:56.406Z,8.20
2022-11-18T14:29:01.885Z,8.70
2022-11-18T14:32:11.845Z,8.20
2022-11-18T14:35:12.660Z,8.00
2022-11-18T14:38:38.355Z,7.90
2022-11-18T14:41:49.218Z,7.90
2022-11-18T14:44:51.202Z,7.80
2022-11-18T14:47:52.982Z,7.70
2022-11-18T14:50:54.998Z,7.80
2022-11-18T14:53:56.259Z,7.70
2022-11-18T14:57:01.645Z,7.60
2022-11-18T15:00:03.931Z,7.60
2022-11-18T15:03:04.982Z,7.60
2022-11-18T15:06:19.144Z,7.70
2022-11-18T15:09:20.012Z,7.60
2022-11-18T15:12:20.722Z,7.60
2022-11-18T15:15:21.520Z,7.50
2022-11-18T15:18:25.279Z,7.40
2022-11-18T15:21:26.448Z,7.40
2022-11-18T15:24:27.437Z,7.30
2022-11-18T15:27:28.330Z,7.20
2022-11-18T15:30:29.550Z,7.20
2022-11-18T15:33:30.255Z,7.20
2022-11-18T15:36:31.013Z,7.20
2022-11-18T15:39:32.045Z,7.10
2022-11-18T15:42:36.383Z,7.00
2022-11-18T15:45:40.991Z,7.00
2022-11-18T15:48:42.432Z,7.00
2022-11-18T15:51:43.388Z,6.90
2022-11-18T15:54:44.791Z,6.80
2022-11-18T15:57:45.688Z,6.80
2022-11-18T16:00:46.462Z,6.80
2022-11-18T16:03:49.627Z,6.80
2022-11-18T16:06:50.533Z,6.70
2022-11-18T16:10:09.786Z,6.70
2022-11-18T16:13:11.116Z,6.70
2022-11-18T16:16:30.203Z,6.70
2022-11-18T16:19:33.656Z,6.60
2022-11-18T16:22:34.791Z,6.60
2022-11-18T16:25:36.131Z,6.60
2022-11-18T16:28:36.779Z,6.60
2022-11-18T16:31:40.086Z,6.70
2022-11-18T16:34:41.525Z,6.60
2022-11-18T16:37:42.366Z,6.60
2022-11-18T16:40:43.300Z,6.50
2022-11-18T16:43:44.439Z,6.50
2022-11-18T16:46:52.107Z,6.50
2022-11-18T16:49:52.826Z,6.50
2022-11-18T16:52:53.749Z,6.50
2022-11-18T16:56:03.927Z,6.40
2022-11-18T16:59:11.379Z,6.30
2022-11-18T17:02:13.719Z,6.30
2022-11-18T17:05:15.211Z,6.30
2022-11-18T17:08:16.370Z,6.30
2022-11-18T17:11:17.797Z,6.20
2022-11-18T17:14:22.478Z,6.20
2022-11-18T17:17:23.665Z,6.20
2022-11-18T17:20:24.847Z,6.20
2022-11-18T17:23:28.550Z,6.20
2022-11-18T17:26:29.327Z,6.20
2022-11-18T17:29:30.221Z,6.20
2022-11-18T17:32:31.362Z,6.20
2022-11-18T17:35:32.323Z,6.20
2022-11-18T17:38:36.830Z,6.20
2022-11-18T17:41:56.907Z,6.20
2022-11-18T17:44:57.660Z,6.20
2022-11-18T17:47:58.883Z,6.20
2022-11-18T17:51:07.047Z,6.20
2022-11-18T17:54:09.625Z,6.20
2022-11-18T17:57:10.760Z,6.20
2022-11-18T18:00:12.878Z,6.20
2022-11-18T18:03:14.460Z,6.20
2022-11-18T18:06:17.108Z,6.20
2022-11-18T18:09:27.013Z,6.30
2022-11-18T18:12:49.448Z,6.40
2022-11-18T18:16:02.270Z,6.40
2022-11-18T18:19:06.130Z,6.40
2022-11-18T18:22:07.079Z,6.50
2022-11-18T18:25:11.715Z,6.50
2022-11-18T18:28:13.077Z,6.50
2022-11-18T18:31:16.852Z,6.50
2022-11-18T18:34:18.514Z,6.50
2022-11-18T18:37:19.972Z,6.40
2022-11-18T18:40:20.854Z,6.40
2022-11-18T18:43:22.371Z,6.50
2022-11-18T18:46:29.634Z,6.50
2022-11-18T18:49:31.485Z,6.50
2022-11-18T18:52:33.437Z,6.50
2022-11-18T18:55:34.735Z,6.40
2022-11-18T18:58:36.611Z,6.30
2022-11-18T19:01:38.993Z,6.20
2022-11-18T19:04:40.477Z,6.10
2022-11-18T19:07:43.681Z,6.10
2022-11-18T19:10:44.684Z,6.10
2022-11-18T19:13:45.499Z,6.00
2022-11-18T19:16:48.113Z,6.00
2022-11-18T19:20:07.722Z,6.00
2022-11-18T19:23:10.953Z,5.90
2022-11-18T19:26:11.942Z,5.90
2022-11-18T19:29:12.825Z,5.90
2022-11-18T19:32:14.529Z,5.90
2022-11-18T19:35:15.963Z,6.00
2022-11-18T19:38:16.938Z,6.00
2022-11-18T19:41:18.043Z,6.00
2022-11-18T19:44:18.923Z,6.00
2022-11-18T19:47:19.742Z,6.00
2022-11-18T19:50:20.967Z,6.00
2022-11-18T19:53:35.060Z,6.10
2022-11-18T19:56:35.978Z,6.20
2022-11-18T19:59:37.025Z,6.20
2022-11-18T20:02:38.810Z,6.20
2022-11-18T20:05:51.909Z,6.20
2022-11-18T20:08:54.074Z,6.20
2022-11-18T20:11:55.106Z,6.20
2022-11-18T20:14:56.354Z,6.10
2022-11-18T20:17:57.447Z,6.00
2022-11-18T20:21:12.795Z,5.90
2022-11-18T20:24:18.857Z,5.70
2022-11-18T20:27:21.236Z,5.60
2022-11-18T20:30:22.680Z,5.60
2022-11-18T20:33:23.637Z,5.60
2022-11-18T20:36:34.649Z,5.50
2022-11-18T20:39:35.435Z,5.50
2022-11-18T20:42:54.980Z,5.70
2022-11-18T20:45:56.175Z,5.80
2022-11-18T20:48:57.362Z,5.70
2022-11-18T20:51:58.273Z,5.70
2022-11-18T20:55:04.140Z,5.80
2022-11-18T20:58:06.299Z,5.80
2022-11-18T21:01:17.177Z,5.90
2022-11-18T21:04:18.147Z,5.90
2022-11-18T21:07:18.975Z,6.00
2022-11-18T21:10:21.088Z,6.00
2022-11-18T21:13:40.450Z,6.00
2022-11-18T21:16:42.382Z,6.00
2022-11-18T21:19:47.407Z,5.90
2022-11-18T21:22:49.727Z,5.90
2022-11-18T21:25:50.557Z,5.90
2022-11-18T21:28:56.147Z,6.00
2022-11-18T21:31:58.367Z,6.00
2022-11-18T21:34:59.209Z,6.10
2022-11-18T21:38:04.143Z,6.10
2022-11-18T21:41:06.558Z,6.10
2022-11-18T21:44:13.183Z,6.10
2022-11-18T21:47:14.185Z,6.00
2022-11-18T21:50:15.099Z,6.00
2022-11-18T21:53:16.382Z,6.00
2022-11-18T21:56:25.139Z,6.00
2022-11-18T21:59:26.193Z,5.90
2022-11-18T22:02:27.352Z,5.90
2022-11-18T22:05:28.234Z,5.90
2022-11-18T22:08:31.175Z,5.90
2022-11-18T22:11:32.201Z,5.70
2022-11-18T22:14:33.438Z,5.60
2022-11-18T22:17:34.393Z,5.60
2022-11-18T22:20:35.543Z,5.50
2022-11-18T22:23:36.365Z,5.40
2022-11-18T22:26:37.048Z,5.30
2022-11-18T22:29:37.826Z,5.20
2022-11-18T22:32:38.619Z,5.10
2022-11-18T22:35:39.523Z,5.10
2022-11-18T22:38:43.512Z,5.00
2022-11-18T22:42:03.395Z,5.00
2022-11-18T22:45:04.682Z,5.00
2022-11-18T22:48:06.003Z,5.00
2022-11-18T22:51:07.154Z,5.00
2022-11-18T22:54:37.056Z,4.90
2022-11-18T22:57:35.950Z,4.80
2022-11-18T23:00:36.853Z,4.70
2022-11-18T23:03:37.951Z,4.70
2022-11-18T23:06:39.083Z,4.70
2022-11-18T23:09:39.907Z,4.60
2022-11-18T23:12:59.379Z,4.60
2022-11-18T23:16:00.209Z,4.60
2022-11-18T23:19:03.473Z,4.70
2022-11-18T23:22:04.287Z,4.70
2022-11-18T23:25:05.725Z,4.70
2022-11-18T23:28:06.734Z,4.70
2022-11-18T23:31:13.894Z,4.70
2022-11-18T23:34:16.342Z,4.70
2022-11-18T23:37:17.459Z,4.70
2022-11-18T23:40:18.435Z,4.50
2022-11-18T23:43:19.544Z,4.40
2022-11-18T23:46:21.809Z,4.40
2022-11-18T23:49:22.963Z,4.40
2022-11-18T23:52:23.764Z,4.50
2022-11-18T23:55:24.830Z,4.60
2022-11-18T23:58:25.918Z,4.70
